Time;durP1;ratioP1;P1;durP2;ratioP2;P2;SDS_P1;SDS_P2;PMS_P1;PMS_P2;Temp;Humidity;BMP_temperature;BMP_pressure;BME280_temperature;BME280_humidity;BME280_pressure;Samples;Min_cycle;Max_cycle;Signal;HPM_P1;HPM_P2
2022/08/11 00:01:48;;;;;;;5.18;2.40;;;22.30;53.50;;;;;;5113425;28;20016;-72
2022/08/11 00:04:15;;;;;;;4.88;2.55;;;22.40;53.80;;;;;;5113403;28;20503;-73
2022/08/11 00:06:42;;;;;;;4.85;2.47;;;22.40;53.70;;;;;;5113601;28;20082;-72
2022/08/11 00:09:20;;;;;;;3.80;2.72;;;22.40;53.40;;;;;;5113435;28;20020;-73
2022/08/11 00:11:51;;;;;;;3.80;2.55;;;22.50;52.80;;;;;;5113419;28;20050;-72
2022/08/11 00:14:29;;;;;;;4.07;2.28;;;22.40;52.90;;;;;;5113317;28;20020;-72
2022/08/11 00:16:56;;;;;;;4.00;2.47;;;22.30;53.00;;;;;;5113402;28;20024;-72
2022/08/11 00:19:29;;;;;;;4.03;2.40;;;22.30;54.10;;;;;;5113485;28;20044;-72
2022/08/11 00:21:56;;;;;;;3.15;2.47;;;22.20;54.10;;;;;;5113302;28;20395;-73
2022/08/11 00:24:24;;;;;;;4.22;2.30;;;22.30;53.80;;;;;;5113283;28;20043;-72
2022/08/11 00:26:53;;;;;;;3.90;2.42;;;22.30;53.20;;;;;;5113284;28;20031;-72
2022/08/11 00:29:20;;;;;;;2.97;2.30;;;22.40;52.70;;;;;;5113168;28;20028;-73
2022/08/11 00:31:49;;;;;;;3.67;2.47;;;22.40;51.80;;;;;;5113235;28;20502;-73
2022/08/11 00:34:21;;;;;;;3.17;2.45;;;22.50;51.30;;;;;;5113208;28;20024;-72
2022/08/11 00:36:58;;;;;;;3.63;2.30;;;22.50;51.30;;;;;;5113237;28;20046;-72
2022/08/11 00:39:25;;;;;;;3.33;2.58;;;22.50;51.40;;;;;;5113341;28;20025;-72
2022/08/11 00:42:20;;;;;;;2.78;2.28;;;22.40;52.20;;;;;;5113074;28;20081;-73
2022/08/11 00:45:15;;;;;;;3.88;2.55;;;22.30;53.50;;;;;;5113317;28;20094;-72
2022/08/11 00:48:11;;;;;;;3.67;2.63;;;22.10;53.20;;;;;;5113247;28;20080;-72
2022/08/11 00:51:14;;;;;;;4.03;2.55;;;22.10;54.00;;;;;;5113239;28;20028;-72
2022/08/11 00:53:42;;;;;;;3.50;2.80;;;22.00;53.50;;;;;;5113201;28;20094;-72
2022/08/11 00:56:39;;;;;;;4.35;2.58;;;22.00;54.30;;;;;;5113010;28;20523;-72
2022/08/11 00:59:34;;;;;;;6.10;2.83;;;22.00;54.50;;;;;;5112975;28;20024;-73
2022/08/11 01:02:38;;;;;;;3.25;2.65;;;21.90;53.90;;;;;;5112926;28;20050;-73
2022/08/11 01:05:16;;;;;;;4.20;2.58;;;22.00;53.70;;;;;;5114387;28;20047;-72
2022/08/11 01:08:04;;;;;;;5.10;2.60;;;21.90;54.80;;;;;;5116759;28;20030;-72
2022/08/11 01:10:55;;;;;;;3.88;2.67;;;21.90;53.80;;;;;;5116509;28;20020;-72
2022/08/11 01:13:50;;;;;;;4.30;2.75;;;21.90;53.80;;;;;;5116593;28;20024;-72
2022/08/11 01:16:46;;;;;;;7.32;2.75;;;21.90;54.40;;;;;;5104989;28;20081;-72
2022/08/11 01:19:17;;;;;;;3.17;2.60;;;21.90;53.40;;;;;;5116413;28;20046;-73
2022/08/11 01:22:29;;;;;;;4.38;2.92;;;21.90;52.70;;;;;;5116243;28;20028;-72
2022/08/11 01:25:20;;;;;;;5.53;2.65;;;21.90;52.90;;;;;;5116255;28;20031;-72
2022/08/11 01:28:04;;;;;;;4.07;2.50;;;21.90;53.20;;;;;;5116174;28;20080;-73
2022/08/11 01:30:42;;;;;;;4.50;2.22;;;21.90;53.00;;;;;;5115110;28;20024;-72
2022/08/11 01:33:58;;;;;;;3.67;2.60;;;21.80;53.10;;;;;;5116134;28;20024;-72
2022/08/11 01:36:42;;;;;;;4.85;2.70;;;21.80;53.90;;;;;;5116163;28;20043;-73
2022/08/11 01:39:13;;;;;;;4.40;2.63;;;21.70;54.00;;;;;;5115956;28;20056;-72
2022/08/11 01:45:23;;;;;;;6.55;2.65;;;21.70;53.40;;;;;;5115899;28;20031;-72
2022/08/11 01:48:19;;;;;;;4.07;2.60;;;21.70;53.00;;;;;;5115854;28;20024;-72
2022/08/11 01:50:53;;;;;;;4.43;2.45;;;21.70;54.30;;;;;;5115755;28;20042;-73
2022/08/11 01:53:27;;;;;;;4.82;3.03;;;21.80;53.80;;;;;;5115732;28;20032;-73
2022/08/11 01:56:37;;;;;;;4.40;2.78;;;21.80;53.50;;;;;;5115855;28;20024;-73
2022/08/11 01:59:32;;;;;;;3.53;2.63;;;21.80;53.60;;;;;;5115767;28;20375;-72
2022/08/11 02:02:15;;;;;;;3.72;2.70;;;21.70;53.10;;;;;;5115453;28;20020;-72
2022/08/11 02:05:00;;;;;;;5.25;2.70;;;21.60;53.30;;;;;;5115319;28;20048;-72
2022/08/11 02:08:16;;;;;;;5.20;2.80;;;21.40;54.30;;;;;;5115479;28;20093;-73
2022/08/11 02:14:13;;;;;;;3.83;2.90;;;21.20;54.80;;;;;;5115348;28;20031;-73
2022/08/11 02:16:49;;;;;;;4.75;3.35;;;21.10;54.80;;;;;;5115353;28;20043;-73
2022/08/11 02:25:48;;;;;;;5.38;2.53;;;21.00;54.30;;;;;;5115144;28;20050;-73
2022/08/11 02:28:21;;;;;;;3.85;2.53;;;20.90;54.80;;;;;;5111708;28;20032;-73
2022/08/11 02:34:11;;;;;;;4.13;2.80;;;20.90;55.20;;;;;;5115133;28;20304;-73
2022/08/11 02:36:51;;;;;;;4.15;2.55;;;20.70;55.20;;;;;;5114917;28;20024;-72
2022/08/11 02:39:21;;;;;;;5.43;2.92;;;20.70;56.10;;;;;;5114855;28;20028;-73
2022/08/11 02:42:26;;;;;;;5.55;2.80;;;20.70;56.00;;;;;;5114746;28;20032;-73
2022/08/11 02:44:54;;;;;;;4.43;2.83;;;20.70;56.10;;;;;;5114347;28;20032;-73
2022/08/11 02:50:48;;;;;;;4.13;2.72;;;20.60;56.70;;;;;;5114655;28;20046;-73
2022/08/11 02:53:35;;;;;;;5.43;3.20;;;20.60;56.80;;;;;;5114594;28;20084;-73
2022/08/11 02:56:12;;;;;;;5.00;2.90;;;20.60;56.80;;;;;;5114629;28;20031;-73
2022/08/11 03:02:07;;;;;;;4.88;2.90;;;20.60;56.60;;;;;;5114605;28;20096;-73
2022/08/11 03:04:57;;;;;;;4.93;2.78;;;20.70;56.10;;;;;;5114177;28;20036;-73
2022/08/11 03:07:51;;;;;;;3.95;2.83;;;20.70;55.20;;;;;;5114429;28;20035;-73
2022/08/11 03:10:31;;;;;;;5.78;2.55;;;20.80;55.40;;;;;;5104056;28;20036;-73
2022/08/11 03:19:14;;;;;;;3.90;3.10;;;20.50;56.20;;;;;;5114315;28;20043;-72
2022/08/11 03:21:55;;;;;;;5.35;3.28;;;20.50;56.00;;;;;;5114000;28;20028;-73
2022/08/11 03:24:32;;;;;;;3.70;2.88;;;20.50;56.10;;;;;;5114162;28;20156;-73
2022/08/11 03:27:07;;;;;;;5.38;3.25;;;20.60;56.10;;;;;;5113778;28;20020;-72
2022/08/11 03:29:45;;;;;;;3.22;2.70;;;20.50;56.70;;;;;;5112868;28;20020;-73
2022/08/11 03:32:34;;;;;;;5.85;3.13;;;20.40;57.10;;;;;;5113919;28;20063;-73
2022/08/11 03:35:02;;;;;;;11.65;3.53;;;20.30;57.80;;;;;;5113863;28;20016;-72
2022/08/11 03:37:49;;;;;;;4.15;3.10;;;20.20;57.80;;;;;;5113810;28;20024;-73
2022/08/11 03:43:27;;;;;;;4.72;3.13;;;20.00;58.60;;;;;;5113705;28;20058;-73
2022/08/11 03:46:11;;;;;;;4.72;3.47;;;20.10;58.70;;;;;;5113721;28;20051;-73
2022/08/11 03:49:04;;;;;;;6.15;3.20;;;20.00;58.70;;;;;;5113722;28;20050;-73
2022/08/11 03:51:49;;;;;;;4.82;3.20;;;19.90;59.70;;;;;;5113689;28;20544;-73
2022/08/11 03:54:37;;;;;;;4.53;3.10;;;19.90;59.10;;;;;;5113635;28;20056;-72
2022/08/11 03:57:15;;;;;;;4.43;3.40;;;19.90;59.10;;;;;;5113595;28;20024;-72
2022/08/11 04:00:10;;;;;;;6.78;2.92;;;19.80;59.00;;;;;;5113520;28;20032;-72
2022/08/11 04:03:03;;;;;;;4.70;3.13;;;19.80;59.00;;;;;;5113616;28;20012;-72
2022/08/11 04:06:07;;;;;;;4.82;3.28;;;19.70;59.40;;;;;;5113301;28;20052;-73
2022/08/11 04:08:54;;;;;;;5.53;3.25;;;19.80;59.80;;;;;;5113432;28;20023;-73
2022/08/11 04:11:53;;;;;;;5.82;3.35;;;19.70;59.60;;;;;;5113603;28;20054;-72
2022/08/11 04:17:31;;;;;;;5.07;3.38;;;19.60;59.50;;;;;;5113582;28;20034;-73
2022/08/11 04:20:16;;;;;;;6.03;3.00;;;19.60;59.50;;;;;;5113372;28;20042;-72
2022/08/11 04:22:53;;;;;;;5.50;3.65;;;19.70;59.40;;;;;;5113256;28;20020;-73
2022/08/11 04:25:35;;;;;;;5.70;3.42;;;19.60;58.90;;;;;;5113326;28;20020;-73
2022/08/11 04:28:29;;;;;;;5.63;3.47;;;19.70;60.00;;;;;;5113384;28;20047;-72
2022/08/11 04:31:29;;;;;;;4.50;3.38;;;19.60;60.10;;;;;;5113275;28;20489;-72
2022/08/11 04:34:13;;;;;;;7.15;3.28;;;19.60;60.70;;;;;;5113259;28;20103;-72
2022/08/11 04:40:10;;;;;;;4.68;3.33;;;19.40;60.50;;;;;;5114663;28;20038;-72
2022/08/11 04:43:20;;;;;;;4.07;2.92;;;19.30;60.70;;;;;;5117052;28;20031;-72
2022/08/11 04:46:05;;;;;;;4.95;3.60;;;19.30;61.70;;;;;;5110042;28;20091;-72
2022/08/11 05:07:13;;;;;;;5.07;3.80;;;19.40;61.60;;;;;;5116651;28;20078;-73
2022/08/11 05:10:13;;;;;;;6.60;4.22;;;19.50;61.10;;;;;;5116767;28;20031;-72
2022/08/11 05:12:44;;;;;;;6.85;4.07;;;19.60;60.40;;;;;;5116676;28;20032;-73
2022/08/11 05:35:40;;;;;;;8.98;4.72;;;19.80;61.80;;;;;;5116131;28;20039;-75
2022/08/11 05:57:48;;;;;;;7.53;4.63;;;20.20;62.10;;;;;;5115932;28;20062;-75
2022/08/11 06:00:14;;;;;;;7.85;4.70;;;20.20;61.50;;;;;;5114594;28;20054;-75
2022/08/11 06:02:43;;;;;;;7.10;4.85;;;20.30;61.30;;;;;;5115455;28;20036;-74
2022/08/11 06:05:09;;;;;;;14.57;5.30;;;20.30;61.50;;;;;;5115353;28;20104;-75
2022/08/11 06:07:35;;;;;;;11.02;5.05;;;20.30;62.10;;;;;;5115583;28;20020;-75
2022/08/11 06:10:01;;;;;;;7.32;4.55;;;20.40;62.70;;;;;;5115419;28;20048;-75
2022/08/11 06:12:35;;;;;;;8.30;4.70;;;20.40;62.10;;;;;;5115219;28;20054;-75
2022/08/11 06:15:04;;;;;;;9.13;5.00;;;20.50;62.10;;;;;;5115364;28;20451;-75
2022/08/11 06:17:32;;;;;;;7.45;5.28;;;20.50;62.30;;;;;;5114058;28;20057;-75
2022/08/11 06:20:00;;;;;;;7.18;4.68;;;20.60;61.60;;;;;;5115350;28;20020;-75
2022/08/11 06:22:27;;;;;;;8.68;4.72;;;20.60;61.20;;;;;;5115102;28;20031;-75
2022/08/11 06:24:57;;;;;;;12.20;5.43;;;20.70;61.00;;;;;;5115120;28;20031;-75
2022/08/11 06:27:27;;;;;;;12.93;4.85;;;20.70;61.50;;;;;;5115204;28;20031;-75
2022/08/11 06:29:54;;;;;;;8.10;4.68;;;20.80;62.20;;;;;;5115030;28;20377;-75
2022/08/11 06:32:26;;;;;;;9.70;4.40;;;20.80;60.90;;;;;;5114945;28;20035;-75
2022/08/11 06:35:12;;;;;;;7.03;4.18;;;20.90;60.40;;;;;;5114966;28;20028;-75
2022/08/11 06:37:59;;;;;;;9.18;4.55;;;20.90;60.30;;;;;;5114938;28;20435;-75
2022/08/11 06:41:29;;;;;;;8.82;4.30;;;21.00;60.40;;;;;;5114833;28;20032;-73
2022/08/11 06:43:48;;;;;;;8.95;4.45;;;21.10;60.30;;;;;;5114627;28;20040;-74
2022/08/11 06:46:21;;;;;;;8.00;4.25;;;21.20;60.20;;;;;;5114834;28;20016;-73
2022/08/11 06:48:48;;;;;;;7.18;4.22;;;21.20;60.50;;;;;;5114696;28;20023;-75
2022/08/11 06:51:15;;;;;;;5.95;4.03;;;21.20;59.60;;;;;;5114610;28;20023;-73
2022/08/11 06:53:45;;;;;;;7.82;4.70;;;21.30;59.50;;;;;;5114513;28;20020;-73
2022/08/11 07:01:55;;;;;;;6.22;4.25;;;21.60;59.10;;;;;;5114235;28;20058;-75
2022/08/11 07:04:52;;;;;;;12.43;4.57;;;21.60;59.30;;;;;;5114231;28;20059;-75
2022/08/11 07:16:10;;;;;;;5.75;4.00;;;21.90;57.90;;;;;;5114402;28;20042;-73
2022/08/11 07:30:08;;;;;;;7.95;3.80;;;22.30;57.20;;;;;;5113960;28;20032;-74
2022/08/11 07:32:51;;;;;;;6.35;3.90;;;22.40;56.90;;;;;;5113884;28;20046;-76
2022/08/11 07:35:23;;;;;;;6.32;3.58;;;22.50;57.00;;;;;;5113891;28;20024;-75
2022/08/11 07:38:01;;;;;;;7.93;3.40;;;22.60;56.30;;;;;;5113919;28;20048;-75
2022/08/11 07:40:27;;;;;;;6.15;3.33;;;22.70;56.10;;;;;;5113879;28;20020;-74
2022/08/11 07:42:55;;;;;;;7.15;2.95;;;22.80;55.60;;;;;;5113681;28;20032;-73
2022/08/11 07:53:39;;;;;;;5.43;3.30;;;23.20;53.30;;;;;;5113668;28;20423;-75
2022/08/11 07:56:06;;;;;;;6.97;3.40;;;23.20;52.50;;;;;;5113569;28;20092;-75
2022/08/11 08:18:01;;;;;;;6.53;3.17;;;23.90;48.70;;;;;;5117645;28;20034;-75
2022/08/11 08:20:33;;;;;;;3.95;2.95;;;24.00;48.90;;;;;;5117554;28;20020;-75
2022/08/11 08:23:01;;;;;;;5.10;3.30;;;24.10;49.00;;;;;;5117367;28;20058;-75
2022/08/11 08:25:29;;;;;;;5.63;2.97;;;24.20;49.70;;;;;;5117467;28;20012;-75
2022/08/11 08:27:57;;;;;;;6.22;3.20;;;24.30;49.70;;;;;;5117314;28;20012;-75
2022/08/11 08:33:12;;;;;;;5.93;3.50;;;24.50;47.80;;;;;;5117358;28;20088;-75
2022/08/11 08:35:40;;;;;;;5.80;3.15;;;24.60;47.90;;;;;;5117243;28;20059;-75
2022/08/11 08:38:06;;;;;;;6.18;3.53;;;24.60;47.20;;;;;;5117200;28;20020;-75
2022/08/11 08:40:32;;;;;;;7.43;3.20;;;24.70;47.90;;;;;;5117157;28;20027;-75
2022/08/11 08:43:03;;;;;;;5.88;3.33;;;24.90;46.80;;;;;;5117078;28;20033;-75
2022/08/11 08:45:33;;;;;;;7.78;3.47;;;24.90;47.80;;;;;;5117138;28;20042;-75
2022/08/11 08:48:02;;;;;;;4.22;3.38;;;24.90;44.80;;;;;;5116076;28;20028;-75
2022/08/11 08:53:21;;;;;;;5.70;3.58;;;25.00;46.30;;;;;;5117026;28;20035;-75
2022/08/11 08:55:49;;;;;;;7.50;3.30;;;25.10;45.40;;;;;;5116905;28;20035;-75
2022/08/11 08:58:18;;;;;;;4.80;3.03;;;25.20;45.90;;;;;;5116842;28;20024;-75
2022/08/11 09:00:45;;;;;;;6.90;3.13;;;25.20;45.80;;;;;;5116888;28;20050;-75
2022/08/11 09:03:12;;;;;;;8.65;3.50;;;25.30;46.30;;;;;;5116617;28;20039;-75
2022/08/11 09:05:39;;;;;;;12.35;3.33;;;25.40;45.80;;;;;;5116490;28;20051;-75
2022/08/11 09:08:06;;;;;;;6.97;3.78;;;25.40;45.30;;;;;;5116617;28;20027;-75
2022/08/11 09:10:32;;;;;;;6.68;3.65;;;25.50;45.70;;;;;;5116565;28;20016;-75
2022/08/11 09:12:59;;;;;;;6.35;3.50;;;25.60;45.70;;;;;;5116540;28;20035;-75
2022/08/11 09:15:27;;;;;;;5.00;3.15;;;25.70;44.20;;;;;;5116469;28;20039;-75
2022/08/11 09:18:02;;;;;;;6.25;3.45;;;25.80;44.30;;;;;;5116438;28;20514;-75
2022/08/11 09:20:33;;;;;;;4.43;3.50;;;25.90;44.60;;;;;;5116417;28;20368;-73
2022/08/11 09:28:31;;;;;;;4.97;3.03;;;26.20;43.80;;;;;;5116374;28;20062;-73
2022/08/11 09:31:00;;;;;;;3.58;3.28;;;26.40;41.80;;;;;;5116343;28;20021;-73
2022/08/11 09:33:28;;;;;;;8.90;3.60;;;26.40;42.80;;;;;;5116110;28;20023;-73
2022/08/11 09:35:55;;;;;;;4.75;3.10;;;26.50;42.20;;;;;;5116053;28;20024;-73
2022/08/11 09:41:10;;;;;;;9.23;3.30;;;26.60;40.70;;;;;;5116061;28;20027;-73
2022/08/11 09:46:28;;;;;;;5.07;3.40;;;26.80;41.50;;;;;;5115951;28;20054;-75
2022/08/11 09:48:57;;;;;;;5.47;3.05;;;26.90;41.40;;;;;;5115872;28;20016;-75
2022/08/11 09:51:24;;;;;;;4.28;3.38;;;27.00;41.90;;;;;;5116135;28;20012;-75
2022/08/11 09:53:50;;;;;;;5.20;3.15;;;27.10;41.10;;;;;;5115760;28;20024;-75
2022/08/11 09:59:04;;;;;;;5.35;3.17;;;27.40;39.70;;;;;;5115913;28;20027;-75
2022/08/11 10:01:36;;;;;;;5.03;3.35;;;27.40;39.90;;;;;;5115619;28;20020;-75
2022/08/11 10:04:14;;;;;;;3.97;3.17;;;27.50;40.20;;;;;;5115371;28;20028;-75
2022/08/11 10:07:00;;;;;;;7.63;3.83;;;27.60;40.70;;;;;;5115712;28;20024;-75
2022/08/11 10:09:32;;;;;;;5.60;3.50;;;27.70;41.30;;;;;;5115499;28;20016;-74
2022/08/11 10:12:01;;;;;;;5.00;3.30;;;27.80;40.00;;;;;;5115487;28;20032;-75
2022/08/11 10:17:17;;;;;;;3.85;2.92;;;27.90;39.80;;;;;;5115392;28;20035;-75
2022/08/11 10:19:46;;;;;;;5.90;3.20;;;28.00;39.90;;;;;;5115254;28;20020;-75
2022/08/11 10:27:44;;;;;;;4.55;3.25;;;28.30;38.80;;;;;;5115351;28;20080;-74
2022/08/11 10:35:43;;;;;;;4.53;3.03;;;28.60;37.70;;;;;;5115034;28;20054;-74
2022/08/11 10:38:13;;;;;;;4.45;3.60;;;28.70;34.90;;;;;;5113763;28;20032;-74
2022/08/11 10:40:40;;;;;;;8.15;3.58;;;28.70;35.90;;;;;;5114829;28;20024;-74
2022/08/11 10:43:12;;;;;;;4.85;3.20;;;28.70;35.00;;;;;;5114669;28;20028;-74
2022/08/11 10:48:27;;;;;;;4.53;3.20;;;29.00;36.40;;;;;;5114935;28;20031;-74
2022/08/11 10:51:12;;;;;;;4.53;3.22;;;29.00;35.90;;;;;;5114689;28;20017;-74
2022/08/11 10:59:23;;;;;;;4.80;2.88;;;29.20;33.80;;;;;;5114604;28;20065;-72
2022/08/11 11:01:51;;;;;;;5.53;3.10;;;29.30;34.80;;;;;;5114469;28;20020;-72
2022/08/11 11:04:23;;;;;;;9.52;2.97;;;29.40;34.00;;;;;;5114115;28;20055;-72
2022/08/11 11:07:13;;;;;;;7.05;3.20;;;29.40;34.40;;;;;;5114567;28;20020;-72
2022/08/11 11:09:47;;;;;;;8.68;3.00;;;29.50;34.50;;;;;;5114389;28;20016;-72
2022/08/11 11:18:05;;;;;;;6.10;3.00;;;29.50;31.50;;;;;;5114414;28;20041;-72
2022/08/11 11:20:34;;;;;;;4.00;2.97;;;29.60;32.20;;;;;;5114155;28;20025;-72
2022/08/11 11:23:18;;;;;;;4.15;2.85;;;29.70;31.10;;;;;;5113945;28;20032;-72
2022/08/11 11:26:05;;;;;;;5.45;3.00;;;29.70;30.50;;;;;;5114191;28;20023;-72
2022/08/11 11:29:01;;;;;;;4.68;2.75;;;29.70;28.60;;;;;;5113915;28;20021;-72
2022/08/11 11:31:29;;;;;;;4.35;2.63;;;29.60;29.00;;;;;;5113971;28;20048;-72
2022/08/11 11:34:27;;;;;;;5.55;2.88;;;29.60;31.70;;;;;;5113884;28;20024;-72
2022/08/11 11:36:59;;;;;;;4.47;2.83;;;29.80;30.60;;;;;;5108749;28;20036;-72
2022/08/11 11:39:26;;;;;;;;;;;29.90;30.90;;;;;;5114215;28;20028;-72
2022/08/11 11:41:58;;;;;;;6.55;2.90;;;30.00;30.80;;;;;;5113790;28;19904;-72
2022/08/11 11:44:24;;;;;;;;;;;30.10;29.20;;;;;;5114129;28;20093;-72
2022/08/11 11:46:51;;;;;;;4.35;2.72;;;30.10;31.00;;;;;;5113720;28;19908;-72
2022/08/11 11:49:20;;;;;;;6.60;3.10;;;30.20;31.00;;;;;;5113345;28;20121;-72
2022/08/11 11:51:47;;;;;;;5.00;2.95;;;30.30;31.10;;;;;;5113634;28;20046;-73
2022/08/11 11:54:15;;;;;;;4.38;2.85;;;30.40;28.70;;;;;;5113668;28;20024;-72
2022/08/11 12:01:14;;;;;;;4.35;2.85;;;30.30;29.40;;;;;;5113726;28;20032;-72
2022/08/11 12:02:35;;;;;;;3.53;2.90;;;30.40;29.00;;;;;;5113509;28;20031;-72
2022/08/11 12:05:01;;;;;;;8.55;2.90;;;30.50;30.30;;;;;;5113354;28;20048;-72
2022/08/11 12:10:13;;;;;;;4.35;3.10;;;30.60;27.90;;;;;;5113726;28;20036;-72
2022/08/11 12:15:23;;;;;;;5.72;2.95;;;30.50;28.50;;;;;;5113531;28;20043;-72
2022/08/11 12:17:49;;;;;;;3.33;2.85;;;30.70;29.20;;;;;;5113396;28;20489;-73
2022/08/11 12:20:20;;;;;;;3.92;2.97;;;30.80;29.00;;;;;;5112465;28;20047;-72
2022/08/11 12:28:16;;;;;;;5.28;2.72;;;31.00;27.60;;;;;;5113474;28;20030;-72
2022/08/11 12:30:46;;;;;;;5.43;2.88;;;31.00;27.80;;;;;;5113246;28;20031;-72
2022/08/11 12:33:13;;;;;;;4.32;2.70;;;30.90;28.40;;;;;;5113285;28;20057;-72
2022/08/11 12:35:40;;;;;;;4.50;2.72;;;30.90;28.40;;;;;;5113232;28;20024;-72
2022/08/11 12:38:06;;;;;;;3.45;2.72;;;31.00;26.50;;;;;;5113196;28;20510;-73
2022/08/11 12:46:18;;;;;;;4.35;2.55;;;31.20;29.40;;;;;;5113308;28;20042;-73
2022/08/11 12:52:00;;;;;;;4.53;2.80;;;31.50;28.70;;;;;;5113424;28;20042;-72
2022/08/11 12:54:32;;;;;;;4.25;2.70;;;31.60;28.10;;;;;;5113083;28;20020;-72
2022/08/11 13:05:25;;;;;;;4.00;2.75;;;31.60;26.90;;;;;;5116507;28;20055;-73
2022/08/11 13:07:51;;;;;;;7.25;2.95;;;31.70;27.30;;;;;;5115736;28;20024;-73
2022/08/11 13:13:06;;;;;;;3.08;2.63;;;31.90;27.70;;;;;;5116616;28;20042;-73
2022/08/11 13:15:32;;;;;;;5.00;2.83;;;31.90;26.90;;;;;;5116497;28;20031;-73
2022/08/11 13:17:59;;;;;;;4.18;2.80;;;32.10;26.80;;;;;;5116472;28;20028;-73
2022/08/11 13:20:26;;;;;;;5.40;2.80;;;32.10;26.50;;;;;;5116460;28;20024;-73
2022/08/11 13:22:54;;;;;;;4.50;2.78;;;32.10;25.40;;;;;;5116301;28;20024;-73
2022/08/11 13:25:23;;;;;;;3.42;2.75;;;32.10;25.40;;;;;;5116357;28;20012;-73
2022/08/11 13:27:51;;;;;;;3.03;2.50;;;32.00;25.60;;;;;;5116350;28;20047;-73
2022/08/11 13:33:03;;;;;;;5.10;2.65;;;31.80;25.90;;;;;;5116261;28;20035;-73
2022/08/11 13:35:33;;;;;;;6.28;2.75;;;31.70;26.00;;;;;;5116158;28;20066;-72
2022/08/11 13:38:02;;;;;;;4.07;2.75;;;31.90;26.80;;;;;;5116215;28;20039;-73
2022/08/11 13:40:29;;;;;;;4.50;2.80;;;31.90;25.60;;;;;;5115068;28;20024;-73
2022/08/11 13:42:57;;;;;;;2.95;2.65;;;32.00;26.20;;;;;;5115918;28;20032;-72
2022/08/11 13:45:24;;;;;;;3.53;2.65;;;32.00;25.90;;;;;;5115914;28;20036;-73
2022/08/11 13:47:54;;;;;;;3.50;2.78;;;32.10;26.20;;;;;;5115924;28;20063;-72
2022/08/11 13:50:21;;;;;;;3.58;2.78;;;32.20;26.40;;;;;;5115763;28;20395;-73
2022/08/11 13:53:06;;;;;;;3.95;2.78;;;32.30;26.00;;;;;;5115654;28;20036;-72
2022/08/11 13:55:32;;;;;;;5.30;3.03;;;32.10;25.40;;;;;;5115763;28;20028;-73
2022/08/11 13:57:58;;;;;;;4.20;2.83;;;32.20;26.70;;;;;;5115706;28;20028;-73
2022/08/11 14:00:23;;;;;;;5.10;2.90;;;32.30;26.80;;;;;;5115677;28;20024;-73
2022/08/11 14:02:52;;;;;;;5.43;2.90;;;32.40;25.70;;;;;;5114752;28;20046;-73
2022/08/11 14:05:24;;;;;;;5.30;2.90;;;32.40;25.80;;;;;;5115366;28;20044;-73
2022/08/11 14:07:53;;;;;;;3.53;2.80;;;32.20;25.10;;;;;;5115591;28;20078;-73
2022/08/11 14:10:21;;;;;;;5.30;3.00;;;32.10;24.90;;;;;;5115565;28;20012;-73
2022/08/11 14:15:43;;;;;;;2.65;2.40;;;32.00;24.70;;;;;;5115625;28;20115;-73
2022/08/11 14:18:19;;;;;;;4.47;2.63;;;32.00;25.80;;;;;;5115356;28;20050;-73
2022/08/11 14:23:41;;;;;;;2.83;2.53;;;32.20;25.20;;;;;;5115166;28;20063;-73
2022/08/11 14:26:27;;;;;;;2.88;2.53;;;32.20;26.20;;;;;;5115059;28;20063;-74
2022/08/11 14:28:53;;;;;;;5.40;2.35;;;32.20;25.30;;;;;;5114091;28;20039;-73
2022/08/11 14:31:21;;;;;;;3.42;2.60;;;32.20;25.30;;;;;;5115154;28;20024;-73
2022/08/11 14:33:48;;;;;;;5.03;2.75;;;32.20;25.80;;;;;;5114964;28;20025;-73
2022/08/11 14:36:14;;;;;;;3.60;2.70;;;32.30;25.80;;;;;;5114933;28;20028;-73
2022/08/11 14:38:40;;;;;;;3.55;2.60;;;32.20;25.20;;;;;;5114838;28;20024;-73
2022/08/11 14:49:25;;;;;;;4.50;2.63;;;32.40;26.20;;;;;;5114791;28;20054;-73
2022/08/11 14:51:56;;;;;;;4.13;2.50;;;32.40;26.40;;;;;;5114605;28;20023;-73
2022/08/11 14:57:10;;;;;;;4.15;2.58;;;32.40;25.50;;;;;;5114801;28;20042;-73
2022/08/11 14:59:37;;;;;;;7.22;2.35;;;32.50;26.20;;;;;;5113585;28;20046;-73
2022/08/11 15:04:54;;;;;;;2.80;2.50;;;32.50;26.80;;;;;;5114405;28;20047;-73
2022/08/11 15:07:28;;;;;;;4.45;2.42;;;32.60;26.90;;;;;;5113569;28;20091;-73
2022/08/11 15:10:01;;;;;;;4.93;2.50;;;32.60;25.80;;;;;;5114470;28;20091;-73
2022/08/11 15:12:28;;;;;;;3.03;2.58;;;32.50;25.60;;;;;;5114439;28;20030;-73
2022/08/11 15:17:40;;;;;;;5.82;2.67;;;32.40;25.90;;;;;;5114279;28;20092;-74
2022/08/11 15:25:44;;;;;;;2.72;2.40;;;32.40;25.60;;;;;;5114324;28;20050;-74
2022/08/11 15:45:46;;;;;;;4.10;2.47;;;32.20;26.40;;;;;;5114087;28;20548;-73
2022/08/11 15:48:05;;;;;;;3.70;2.50;;;32.20;26.50;;;;;;5113813;28;20383;-73
2022/08/11 15:50:33;;;;;;;4.03;2.40;;;32.20;26.80;;;;;;5112862;28;20031;-74
2022/08/11 15:53:04;;;;;;;3.45;2.30;;;32.30;27.50;;;;;;5113700;28;20103;-73
2022/08/11 15:55:33;;;;;;;2.70;2.30;;;32.20;26.10;;;;;;5113685;28;20024;-74
2022/08/11 16:06:27;;;;;;;4.75;2.03;;;32.10;26.40;;;;;;5113763;28;20055;-73
2022/08/11 16:08:55;;;;;;;3.03;2.10;;;32.10;26.80;;;;;;5113442;28;20035;-73
2022/08/11 16:11:21;;;;;;;4.22;2.00;;;32.00;26.40;;;;;;5113459;28;20028;-73
2022/08/11 16:16:34;;;;;;;4.05;2.45;;;32.10;27.60;;;;;;5113673;28;20066;-73
2022/08/11 16:19:01;;;;;;;4.03;2.38;;;32.00;27.30;;;;;;5113390;28;20035;-73
2022/08/11 16:21:35;;;;;;;2.65;2.45;;;32.00;27.30;;;;;;5113364;28;20032;-73
2022/08/11 16:24:06;;;;;;;3.95;2.47;;;31.90;27.10;;;;;;5113255;28;20036;-73
2022/08/11 16:26:35;;;;;;;2.58;2.38;;;31.90;26.80;;;;;;5113332;28;20012;-73
2022/08/11 16:29:01;;;;;;;3.47;2.30;;;31.90;27.10;;;;;;5113336;28;20047;-73
2022/08/11 16:31:29;;;;;;;4.00;2.38;;;31.80;27.30;;;;;;5095484;28;20543;-73
2022/08/11 16:33:55;;;;;;;6.57;2.28;;;31.80;27.10;;;;;;5112281;28;20040;-73
2022/08/11 16:39:10;;;;;;;4.55;2.25;;;31.70;26.80;;;;;;5117288;28;20058;-73
2022/08/11 16:47:15;;;;;;;4.50;2.60;;;31.60;27.20;;;;;;5117327;28;20062;-73
2022/08/11 16:49:52;;;;;;;3.35;2.30;;;31.60;27.30;;;;;;5117171;28;20020;-73
2022/08/11 16:52:19;;;;;;;4.45;2.80;;;31.50;27.50;;;;;;5117013;28;20034;-73
2022/08/11 16:54:48;;;;;;;2.80;2.40;;;31.50;27.70;;;;;;5116925;28;20017;-73
2022/08/11 17:00:14;;;;;;;2.85;2.20;;;31.50;27.70;;;;;;5117085;28;20066;-73
2022/08/11 17:14:50;;;;;;;3.42;2.40;;;31.20;28.10;;;;;;5116624;28;20031;-73
2022/08/11 17:17:24;;;;;;;4.97;2.28;;;31.20;28.10;;;;;;5116532;28;20062;-73
2022/08/11 17:19:55;;;;;;;3.22;2.10;;;31.20;28.60;;;;;;5116495;28;20020;-73
2022/08/11 17:25:08;;;;;;;4.00;2.50;;;31.20;28.90;;;;;;5116486;28;20051;-73
2022/08/11 17:27:35;;;;;;;3.28;2.50;;;31.10;28.40;;;;;;5116334;28;20028;-73
2022/08/11 17:30:05;;;;;;;5.88;2.40;;;31.00;28.60;;;;;;5116172;28;20069;-73
2022/08/11 17:35:29;;;;;;;3.72;2.20;;;31.00;28.20;;;;;;5116417;28;20108;-73
2022/08/11 17:38:20;;;;;;;3.95;2.28;;;31.00;28.20;;;;;;5116177;28;20039;-73
2022/08/11 17:49:11;;;;;;;3.30;2.20;;;30.80;27.80;;;;;;5115943;28;20049;-73
2022/08/11 17:59:56;;;;;;;3.70;2.10;;;30.50;28.60;;;;;;5115804;28;20035;-74
2022/08/11 18:05:19;;;;;;;3.00;2.33;;;30.40;29.20;;;;;;5115505;28;20047;-73
